Time;durP1;ratioP1;P1;durP2;ratioP2;P2;SDS_P1;SDS_P2;PMS_P1;PMS_P2;Temp;Humidity;BMP_temperature;BMP_pressure;BME280_temperature;BME280_humidity;BME280_pressure;Samples;Min_cycle;Max_cycle;Signal;HPM_P1;HPM_P2
2023/12/15 00:01:43;;;;;;;0.30;0.30;;;4.40;99.90;;;;;;5038562;28;20450;-81
2023/12/15 00:04:10;;;;;;;1.53;0.60;;;4.40;99.90;;;;;;5039005;28;20438;-81
2023/12/15 00:06:37;;;;;;;0.90;0.80;;;4.40;99.90;;;;;;5038012;28;20866;-80
2023/12/15 00:09:04;;;;;;;0.77;0.50;;;4.40;99.90;;;;;;5038461;28;20458;-80
2023/12/15 00:11:31;;;;;;;0.80;0.50;;;4.40;99.90;;;;;;5039008;28;20473;-80
2023/12/15 00:13:57;;;;;;;0.63;0.63;;;4.40;99.90;;;;;;5038682;28;20449;-80
2023/12/15 00:16:25;;;;;;;0.43;0.40;;;4.40;99.90;;;;;;5038226;28;20458;-81
2023/12/15 00:18:52;;;;;;;0.40;0.40;;;4.40;99.90;;;;;;5038403;28;20454;-80
2023/12/15 00:21:19;;;;;;;1.23;0.90;;;4.30;99.90;;;;;;5038725;28;20439;-81
2023/12/15 00:23:45;;;;;;;0.60;0.60;;;4.40;99.90;;;;;;5038469;28;20454;-81
2023/12/15 00:26:12;;;;;;;1.00;1.00;;;4.40;99.90;;;;;;5038529;28;20862;-80
2023/12/15 00:28:39;;;;;;;1.07;0.50;;;4.40;99.90;;;;;;5038373;28;20454;-81
2023/12/15 00:31:06;;;;;;;1.73;1.40;;;4.40;99.90;;;;;;5038647;28;20453;-80
2023/12/15 00:33:34;;;;;;;1.43;0.93;;;4.40;99.90;;;;;;5038538;28;20458;-81
2023/12/15 00:36:02;;;;;;;0.70;0.70;;;4.30;99.90;;;;;;5038719;28;20488;-81
2023/12/15 00:38:28;;;;;;;0.40;0.30;;;4.30;99.90;;;;;;5038799;28;20450;-80
2023/12/15 00:40:55;;;;;;;2.27;1.27;;;4.40;99.90;;;;;;5038093;28;20931;-81
2023/12/15 00:43:22;;;;;;;1.10;0.63;;;4.40;99.90;;;;;;5038450;28;20453;-80
2023/12/15 00:45:48;;;;;;;0.73;0.73;;;4.30;99.90;;;;;;5037947;28;20959;-82
2023/12/15 00:48:15;;;;;;;0.53;0.50;;;4.40;99.90;;;;;;5038207;28;20454;-81
2023/12/15 00:50:43;;;;;;;0.53;0.50;;;4.40;99.90;;;;;;5038209;28;20451;-80
2023/12/15 00:53:10;;;;;;;0.70;0.50;;;4.40;99.90;;;;;;5038335;28;20443;-81
2023/12/15 00:55:36;;;;;;;1.17;0.60;;;4.40;99.90;;;;;;5037524;28;20983;-81
2023/12/15 00:58:04;;;;;;;0.90;0.80;;;4.40;99.90;;;;;;5038201;28;20466;-80
2023/12/15 01:00:30;;;;;;;2.43;1.20;;;4.40;99.90;;;;;;5037980;28;20458;-80
2023/12/15 01:02:57;;;;;;;0.40;0.40;;;4.40;99.90;;;;;;5038255;28;20446;-81
2023/12/15 01:05:24;;;;;;;2.00;1.73;;;4.40;99.90;;;;;;5038493;28;20450;-80
2023/12/15 01:07:52;;;;;;;2.73;0.70;;;4.40;99.90;;;;;;5037641;28;20494;-80
2023/12/15 01:10:18;;;;;;;0.40;0.40;;;4.40;99.90;;;;;;5038174;28;20446;-81
2023/12/15 01:12:45;;;;;;;1.07;0.93;;;4.40;99.90;;;;;;5038628;28;20442;-81
2023/12/15 01:15:12;;;;;;;0.43;0.43;;;4.40;99.90;;;;;;5038133;28;20486;-80
2023/12/15 01:17:38;;;;;;;0.67;0.60;;;4.40;99.90;;;;;;5037899;28;21002;-81
2023/12/15 01:20:10;;;;;;;0.47;0.40;;;4.40;99.90;;;;;;5037688;28;20451;-81
2023/12/15 01:22:36;;;;;;;0.40;0.40;;;4.30;99.90;;;;;;5037613;28;20521;-80
2023/12/15 01:25:05;;;;;;;0.40;0.30;;;4.30;99.90;;;;;;5037453;28;20450;-81
2023/12/15 01:27:32;;;;;;;1.17;0.50;;;4.30;99.90;;;;;;5038589;28;20979;-80
2023/12/15 01:29:58;;;;;;;0.40;0.30;;;4.30;99.90;;;;;;5037751;28;20446;-80
2023/12/15 01:32:25;;;;;;;0.60;0.60;;;4.30;99.90;;;;;;5037313;28;20432;-80
2023/12/15 01:34:52;;;;;;;1.60;0.80;;;4.40;99.90;;;;;;5038906;28;20482;-81
2023/12/15 01:37:19;;;;;;;0.40;0.40;;;4.30;99.90;;;;;;5050649;28;20475;-81
2023/12/15 01:39:45;;;;;;;0.83;0.73;;;4.30;99.90;;;;;;5034882;28;20817;-81
2023/12/15 01:42:13;;;;;;;0.50;0.40;;;4.30;99.90;;;;;;5034792;28;20443;-81
2023/12/15 01:44:41;;;;;;;0.60;0.60;;;4.30;99.90;;;;;;5035248;28;20447;-82
2023/12/15 01:47:09;;;;;;;0.73;0.67;;;4.30;99.90;;;;;;5034826;28;20474;-82
2023/12/15 01:49:35;;;;;;;0.60;0.60;;;4.30;99.90;;;;;;5035224;28;20931;-81
2023/12/15 01:52:02;;;;;;;0.33;0.33;;;4.30;99.90;;;;;;5035022;28;20450;-82
2023/12/15 01:54:29;;;;;;;0.50;0.50;;;4.30;99.90;;;;;;5035520;28;20454;-82
2023/12/15 01:56:56;;;;;;;2.73;1.13;;;4.30;99.90;;;;;;5035413;28;20462;-80
2023/12/15 01:59:24;;;;;;;0.73;0.40;;;4.30;99.90;;;;;;5035837;28;20443;-82
2023/12/15 02:01:51;;;;;;;1.40;0.60;;;4.30;99.90;;;;;;5036169;28;20457;-82
2023/12/15 02:04:17;;;;;;;0.50;0.43;;;4.30;99.90;;;;;;5036519;28;20442;-80
2023/12/15 02:06:44;;;;;;;1.87;0.50;;;4.30;99.90;;;;;;5035446;28;21003;-81
2023/12/15 02:09:11;;;;;;;0.80;0.80;;;4.30;99.90;;;;;;5036666;28;20442;-81
2023/12/15 02:11:37;;;;;;;1.57;0.63;;;4.30;99.90;;;;;;5036704;28;20446;-81
2023/12/15 02:14:04;;;;;;;1.13;0.70;;;4.30;99.90;;;;;;5036358;28;20819;-81
2023/12/15 02:16:35;;;;;;;0.80;0.67;;;4.20;99.90;;;;;;5036426;28;20478;-80
2023/12/15 02:19:01;;;;;;;0.70;0.40;;;4.20;99.90;;;;;;5036553;28;20439;-80
2023/12/15 02:21:28;;;;;;;0.80;0.67;;;4.20;99.90;;;;;;5036189;28;20450;-80
2023/12/15 02:23:56;;;;;;;1.00;0.80;;;4.20;99.90;;;;;;5036407;28;20455;-81
2023/12/15 02:26:23;;;;;;;8.00;2.80;;;4.20;99.90;;;;;;5036462;28;20466;-83
2023/12/15 02:28:49;;;;;;;0.50;0.50;;;4.20;99.90;;;;;;5037275;28;20451;-81
2023/12/15 02:31:16;;;;;;;1.20;0.90;;;4.30;99.90;;;;;;5036403;28;20446;-81
2023/12/15 02:33:43;;;;;;;1.43;0.60;;;4.30;99.90;;;;;;5036076;28;20442;-80
2023/12/15 02:36:17;;;;;;;1.93;0.83;;;4.20;99.90;;;;;;5036181;28;20858;-81
2023/12/15 02:38:44;;;;;;;9.30;0.97;;;4.30;99.90;;;;;;5036794;28;20422;-80
2023/12/15 02:41:13;;;;;;;1.47;0.63;;;4.30;99.90;;;;;;5036775;28;20442;-81
2023/12/15 02:43:40;;;;;;;1.37;1.00;;;4.30;99.90;;;;;;5036094;28;20963;-81
2023/12/15 02:46:07;;;;;;;0.80;0.50;;;4.20;99.90;;;;;;5036456;28;20454;-81
2023/12/15 02:48:34;;;;;;;1.37;0.67;;;4.30;99.90;;;;;;5036200;28;20446;-80
2023/12/15 02:51:01;;;;;;;1.43;0.60;;;4.30;99.90;;;;;;5036393;28;20447;-82
2023/12/15 02:53:29;;;;;;;0.70;0.70;;;4.30;99.90;;;;;;5036361;28;20453;-81
2023/12/15 02:55:56;;;;;;;0.53;0.40;;;4.30;99.90;;;;;;5036132;28;20483;-80
2023/12/15 02:58:24;;;;;;;1.13;1.10;;;4.30;99.90;;;;;;5036001;28;20940;-81
2023/12/15 03:00:51;;;;;;;1.17;1.00;;;4.30;99.90;;;;;;5036412;28;20446;-81
2023/12/15 03:03:17;;;;;;;0.70;0.70;;;4.30;99.90;;;;;;5036243;28;20439;-80
2023/12/15 03:05:44;;;;;;;0.97;0.67;;;4.30;99.90;;;;;;5036430;28;20439;-81
2023/12/15 03:08:11;;;;;;;2.30;1.10;;;4.30;99.90;;;;;;5036106;28;20478;-81
2023/12/15 03:10:37;;;;;;;3.03;1.83;;;4.30;99.90;;;;;;5035901;28;20458;-81
2023/12/15 03:13:04;;;;;;;3.53;1.73;;;4.30;99.90;;;;;;5035967;28;20461;-81
2023/12/15 03:15:32;;;;;;;1.40;1.30;;;4.30;99.90;;;;;;5035972;28;20485;-80
2023/12/15 03:17:59;;;;;;;4.20;0.80;;;4.30;99.90;;;;;;5038653;28;20520;-81
2023/12/15 03:20:28;;;;;;;1.30;0.80;;;4.30;99.90;;;;;;5040248;28;20457;-81
2023/12/15 03:22:59;;;;;;;2.87;0.70;;;4.30;99.90;;;;;;5040083;28;20465;-80
2023/12/15 03:25:25;;;;;;;0.87;0.67;;;4.30;99.90;;;;;;5040530;28;20513;-80
2023/12/15 03:27:52;;;;;;;5.03;0.90;;;4.30;99.90;;;;;;5039959;28;20813;-81
2023/12/15 03:30:19;;;;;;;1.53;1.07;;;4.30;99.90;;;;;;5040072;28;20522;-81
2023/12/15 03:32:47;;;;;;;0.50;0.50;;;4.30;99.90;;;;;;5039898;28;20980;-80
2023/12/15 03:35:13;;;;;;;0.67;0.67;;;4.30;99.90;;;;;;5039854;28;20454;-81
2023/12/15 03:37:40;;;;;;;1.43;1.03;;;4.30;99.90;;;;;;5040505;28;20991;-81
2023/12/15 03:40:08;;;;;;;1.10;1.07;;;4.30;99.90;;;;;;5040206;28;20446;-81
2023/12/15 03:42:35;;;;;;;2.53;0.50;;;4.30;99.90;;;;;;5039090;28;20458;-80
2023/12/15 03:45:01;;;;;;;0.90;0.60;;;4.30;99.90;;;;;;5039998;28;20451;-80
2023/12/15 03:47:28;;;;;;;5.60;0.80;;;4.30;99.90;;;;;;5039505;28;20474;-81
2023/12/15 03:49:56;;;;;;;1.47;0.80;;;4.30;99.90;;;;;;5050711;28;20426;-78
2023/12/15 03:52:23;;;;;;;0.97;0.70;;;4.30;99.90;;;;;;5040455;28;20450;-80
2023/12/15 03:54:50;;;;;;;1.67;0.60;;;4.20;99.90;;;;;;5037132;28;20462;-80
2023/12/15 03:57:16;;;;;;;0.90;0.63;;;4.20;99.90;;;;;;5037233;28;20908;-82
2023/12/15 03:59:43;;;;;;;1.73;0.53;;;4.20;99.90;;;;;;5037423;28;20450;-81
2023/12/15 04:02:14;;;;;;;0.70;0.50;;;4.20;99.90;;;;;;5037263;28;20453;-80
2023/12/15 04:04:41;;;;;;;3.20;1.50;;;4.30;99.90;;;;;;5037751;28;20431;-81
2023/12/15 04:07:09;;;;;;;1.17;1.07;;;4.30;99.90;;;;;;5037544;28;20505;-81
2023/12/15 04:09:36;;;;;;;3.90;1.73;;;4.30;99.90;;;;;;5037921;28;20446;-81
2023/12/15 04:12:03;;;;;;;0.70;0.70;;;4.30;99.90;;;;;;5037531;28;20454;-81
2023/12/15 04:14:29;;;;;;;1.10;0.40;;;4.20;99.90;;;;;;5038348;28;20435;-81
2023/12/15 04:16:56;;;;;;;1.50;0.87;;;4.30;99.90;;;;;;5038349;28;20498;-80
2023/12/15 04:19:23;;;;;;;4.00;0.83;;;4.30;99.90;;;;;;5038223;28;20446;-81
2023/12/15 04:21:50;;;;;;;0.60;0.60;;;4.30;99.90;;;;;;5038116;28;20462;-81
2023/12/15 04:24:18;;;;;;;0.80;0.70;;;4.30;99.90;;;;;;5038477;28;20470;-80
2023/12/15 04:26:45;;;;;;;2.23;1.10;;;4.30;99.90;;;;;;5037455;28;20493;-82
2023/12/15 04:29:12;;;;;;;1.73;0.90;;;4.30;99.90;;;;;;5037220;28;20430;-81
2023/12/15 04:31:39;;;;;;;1.47;0.77;;;4.30;99.90;;;;;;5038974;28;20478;-81
2023/12/15 04:34:05;;;;;;;7.13;0.97;;;4.30;99.90;;;;;;5038248;28;20443;-82
2023/12/15 04:36:33;;;;;;;3.17;0.70;;;4.30;99.90;;;;;;5038532;28;20487;-81
2023/12/15 04:38:59;;;;;;;0.67;0.67;;;4.30;99.90;;;;;;5038121;28;20443;-80
2023/12/15 04:41:27;;;;;;;0.70;0.60;;;4.30;99.90;;;;;;5038223;28;20813;-81
2023/12/15 04:43:54;;;;;;;1.93;1.03;;;4.20;99.90;;;;;;5038659;28;20443;-81
2023/12/15 04:46:25;;;;;;;0.40;0.30;;;4.30;99.90;;;;;;5038528;28;20851;-83
2023/12/15 04:48:52;;;;;;;2.27;1.07;;;4.20;99.90;;;;;;5037880;28;20932;-81
2023/12/15 04:51:18;;;;;;;4.27;1.13;;;4.20;99.90;;;;;;5038571;28;20450;-81
2023/12/15 04:53:48;;;;;;;0.70;0.50;;;4.30;99.90;;;;;;5038290;28;20450;-82
2023/12/15 04:56:15;;;;;;;2.87;1.43;;;4.30;99.90;;;;;;5038221;28;20533;-82
2023/12/15 04:58:44;;;;;;;8.17;1.90;;;4.30;99.90;;;;;;5038452;28;20454;-80
2023/12/15 05:01:12;;;;;;;0.50;0.50;;;4.40;99.90;;;;;;5038346;28;20451;-80
2023/12/15 05:03:40;;;;;;;2.00;0.70;;;4.40;99.90;;;;;;5038397;28;20458;-81
2023/12/15 05:06:08;;;;;;;0.83;0.40;;;4.40;99.90;;;;;;5038162;28;20952;-80
2023/12/15 05:08:35;;;;;;;0.60;0.60;;;4.40;99.90;;;;;;5038370;28;20505;-80
2023/12/15 05:11:01;;;;;;;0.93;0.93;;;4.40;99.90;;;;;;5037696;28;20435;-81
2023/12/15 05:13:28;;;;;;;1.37;1.10;;;4.40;99.90;;;;;;5038474;28;20434;-80
2023/12/15 05:15:56;;;;;;;2.20;1.00;;;4.30;99.90;;;;;;5037785;28;20475;-80
2023/12/15 05:18:23;;;;;;;2.30;2.10;;;4.30;99.90;;;;;;5038303;28;20443;-82
2023/12/15 05:20:50;;;;;;;0.90;0.57;;;4.30;99.90;;;;;;5037966;28;20458;-80
2023/12/15 05:23:16;;;;;;;0.93;0.63;;;4.30;99.90;;;;;;5038167;28;20451;-80
2023/12/15 05:25:43;;;;;;;2.87;1.13;;;4.30;99.90;;;;;;5037826;28;20442;-80
2023/12/15 05:28:10;;;;;;;1.37;1.17;;;4.30;99.90;;;;;;5038161;28;20474;-81
2023/12/15 05:30:36;;;;;;;1.70;0.60;;;4.30;99.90;;;;;;5036987;28;20450;-82
2023/12/15 05:33:04;;;;;;;1.60;1.13;;;4.20;99.90;;;;;;5038349;28;20446;-80
2023/12/15 05:35:31;;;;;;;0.70;0.70;;;4.20;99.90;;;;;;5038152;28;20447;-81
2023/12/15 05:37:58;;;;;;;0.60;0.60;;;4.20;99.90;;;;;;5037744;28;20509;-81
2023/12/15 05:40:25;;;;;;;0.90;0.90;;;4.10;99.90;;;;;;5037346;28;20967;-81
2023/12/15 05:42:51;;;;;;;2.53;1.50;;;4.20;99.90;;;;;;5037447;28;20455;-81
2023/12/15 05:45:18;;;;;;;1.77;0.67;;;4.20;99.90;;;;;;5037928;28;20446;-82
2023/12/15 05:47:46;;;;;;;1.67;0.80;;;4.20;99.90;;;;;;5038545;28;20542;-81
2023/12/15 05:50:14;;;;;;;2.37;2.17;;;4.20;99.90;;;;;;5037795;28;20823;-81
2023/12/15 05:52:41;;;;;;;3.33;1.67;;;4.20;99.90;;;;;;5037133;28;20939;-81
2023/12/15 05:55:08;;;;;;;2.30;0.73;;;4.20;99.90;;;;;;5037166;28;20449;-81
2023/12/15 05:57:35;;;;;;;1.27;0.67;;;4.10;99.90;;;;;;5037727;28;20490;-80
2023/12/15 06:00:03;;;;;;;1.17;1.03;;;4.20;99.90;;;;;;5037479;28;20454;-80
2023/12/15 06:02:29;;;;;;;5.90;1.60;;;4.20;99.90;;;;;;5037520;28;20461;-81
2023/12/15 06:04:58;;;;;;;2.23;1.53;;;4.20;99.90;;;;;;5054778;28;20431;-78
2023/12/15 06:07:26;;;;;;;0.50;0.50;;;4.20;99.90;;;;;;5034567;28;20562;-81
2023/12/15 06:09:53;;;;;;;0.60;0.60;;;4.20;99.90;;;;;;5034248;28;20451;-81
2023/12/15 06:12:20;;;;;;;0.90;0.70;;;4.10;99.90;;;;;;5034755;28;20454;-81
2023/12/15 06:14:46;;;;;;;2.20;0.97;;;4.10;99.90;;;;;;5034934;28;20457;-82
2023/12/15 06:17:13;;;;;;;1.47;0.93;;;4.10;99.90;;;;;;5034364;28;20483;-83
2023/12/15 06:19:40;;;;;;;0.60;0.60;;;4.00;99.90;;;;;;5034976;28;20450;-81
2023/12/15 06:22:07;;;;;;;0.57;0.57;;;4.00;99.90;;;;;;5035444;28;20505;-82
2023/12/15 06:24:35;;;;;;;0.60;0.60;;;4.00;99.90;;;;;;5035507;28;20447;-81
2023/12/15 06:27:03;;;;;;;1.67;1.13;;;4.00;99.90;;;;;;5035309;28;20847;-81
2023/12/15 06:29:30;;;;;;;0.80;0.60;;;4.10;99.90;;;;;;5036169;28;20466;-81
2023/12/15 06:31:56;;;;;;;1.50;0.60;;;4.10;99.90;;;;;;5036222;28;20457;-82
2023/12/15 06:34:23;;;;;;;0.93;0.93;;;4.10;99.90;;;;;;5035592;28;20443;-81
2023/12/15 06:36:50;;;;;;;2.23;1.30;;;4.20;99.90;;;;;;5035702;28;20495;-81
2023/12/15 06:39:16;;;;;;;0.73;0.73;;;4.20;99.90;;;;;;5035912;28;20458;-81
2023/12/15 06:41:44;;;;;;;1.13;0.70;;;4.30;99.90;;;;;;5036949;28;20811;-82
2023/12/15 06:44:11;;;;;;;1.47;1.23;;;4.20;99.90;;;;;;5036349;28;20452;-81
2023/12/15 06:46:39;;;;;;;1.87;1.07;;;4.20;99.90;;;;;;5036507;28;20490;-83
2023/12/15 06:49:06;;;;;;;2.33;1.50;;;4.20;99.90;;;;;;5036006;28;20454;-81
2023/12/15 06:51:33;;;;;;;2.47;0.93;;;4.20;99.90;;;;;;5035700;28;20457;-82
2023/12/15 06:53:59;;;;;;;2.83;1.13;;;4.20;99.90;;;;;;5035776;28;20465;-81
2023/12/15 06:56:26;;;;;;;1.23;1.23;;;4.30;99.90;;;;;;5035851;28;20489;-82
2023/12/15 06:58:54;;;;;;;0.97;0.50;;;4.20;99.90;;;;;;5036306;28;20465;-81
2023/12/15 07:01:21;;;;;;;0.80;0.80;;;4.30;99.90;;;;;;5036313;28;20454;-81
2023/12/15 07:03:48;;;;;;;1.27;0.70;;;4.30;99.90;;;;;;5036069;28;20453;-81
2023/12/15 07:06:17;;;;;;;0.77;0.77;;;4.30;99.90;;;;;;5036141;28;20461;-81
2023/12/15 07:08:44;;;;;;;1.17;0.90;;;4.30;99.90;;;;;;5036357;28;20435;-81
2023/12/15 07:11:11;;;;;;;1.37;1.27;;;4.30;99.90;;;;;;5036335;28;20442;-81
2023/12/15 07:13:37;;;;;;;1.23;1.00;;;4.20;99.90;;;;;;5036803;28;20444;-81
2023/12/15 07:16:07;;;;;;;1.17;0.60;;;4.20;99.90;;;;;;5036551;28;20947;-81
2023/12/15 07:18:34;;;;;;;1.80;0.83;;;4.20;99.90;;;;;;5036211;28;20475;-81
2023/12/15 07:21:01;;;;;;;0.60;0.60;;;4.20;99.90;;;;;;5036496;28;20497;-82
2023/12/15 07:23:27;;;;;;;0.70;0.63;;;4.20;99.90;;;;;;5036119;28;20446;-81
2023/12/15 07:25:54;;;;;;;1.67;1.27;;;4.30;99.90;;;;;;5036027;28;20442;-81
2023/12/15 07:28:21;;;;;;;1.27;0.80;;;4.20;99.90;;;;;;5036469;28;20462;-81
2023/12/15 07:30:47;;;;;;;1.07;0.93;;;4.30;99.90;;;;;;5036003;28;20455;-82
2023/12/15 07:33:16;;;;;;;3.87;0.93;;;4.30;99.90;;;;;;5036512;28;20451;-81
2023/12/15 07:35:42;;;;;;;1.27;1.17;;;4.40;99.90;;;;;;5036068;28;20447;-80
2023/12/15 07:38:10;;;;;;;2.60;1.10;;;4.40;99.90;;;;;;5035981;28;20486;-81
2023/12/15 07:40:37;;;;;;;3.63;1.10;;;4.40;99.90;;;;;;5036468;28;20450;-81
2023/12/15 07:43:04;;;;;;;1.13;0.77;;;4.40;99.90;;;;;;5036371;28;20442;-81
2023/12/15 07:45:30;;;;;;;2.00;0.50;;;4.40;99.90;;;;;;5036103;28;20443;-81
2023/12/15 07:47:58;;;;;;;1.10;1.07;;;4.40;99.90;;;;;;5035935;28;20467;-81
2023/12/15 07:50:26;;;;;;;3.57;1.17;;;4.50;99.90;;;;;;5035759;28;20450;-81
2023/12/15 07:52:53;;;;;;;1.03;0.70;;;4.50;99.90;;;;;;5035821;28;20913;-80
2023/12/15 07:55:20;;;;;;;1.07;0.97;;;4.50;99.90;;;;;;5037407;28;20477;-81
2023/12/15 07:57:46;;;;;;;6.17;0.90;;;4.50;99.90;;;;;;5035437;28;20487;-80
2023/12/15 08:00:14;;;;;;;2.20;0.97;;;4.50;99.90;;;;;;5036240;28;20815;-81
2023/12/15 08:02:41;;;;;;;0.80;0.80;;;4.50;99.90;;;;;;5035975;28;20439;-82
2023/12/15 08:05:09;;;;;;;2.10;1.50;;;4.50;99.90;;;;;;5039635;28;20465;-81
2023/12/15 08:07:37;;;;;;;0.87;0.80;;;4.50;99.90;;;;;;5039437;28;20474;-81
2023/12/15 08:10:04;;;;;;;1.10;0.97;;;4.50;99.90;;;;;;5039354;28;20451;-81
2023/12/15 08:12:31;;;;;;;6.33;1.17;;;4.50;99.90;;;;;;5039915;28;20509;-81
2023/12/15 08:14:57;;;;;;;2.00;0.83;;;4.50;99.90;;;;;;5039353;28;20446;-81
2023/12/15 08:17:24;;;;;;;1.70;1.37;;;4.50;99.90;;;;;;5041462;28;20848;-80
2023/12/15 08:19:51;;;;;;;1.00;0.80;;;4.50;99.90;;;;;;5057519;28;20458;-80
2023/12/15 08:22:18;;;;;;;1.50;0.80;;;4.60;99.90;;;;;;5036278;28;20439;-82
2023/12/15 08:24:46;;;;;;;1.80;1.03;;;4.60;99.90;;;;;;5037066;28;20447;-82
2023/12/15 08:27:16;;;;;;;1.87;1.73;;;4.50;99.90;;;;;;5036556;28;20489;-82
2023/12/15 08:29:42;;;;;;;6.13;1.90;;;4.50;99.90;;;;;;5036424;28;20457;-82
2023/12/15 08:32:09;;;;;;;2.63;1.30;;;4.50;99.90;;;;;;5036416;28;20935;-82
2023/12/15 08:34:36;;;;;;;1.57;0.87;;;4.50;99.90;;;;;;5036890;28;20443;-81
2023/12/15 08:37:03;;;;;;;1.57;1.40;;;4.60;99.90;;;;;;5036662;28;20497;-82
2023/12/15 08:39:30;;;;;;;2.00;1.13;;;4.60;99.90;;;;;;5036688;28;20454;-82
2023/12/15 08:41:58;;;;;;;1.70;1.30;;;4.60;99.90;;;;;;5037180;28;20450;-83
2023/12/15 08:44:24;;;;;;;2.27;1.17;;;4.70;99.90;;;;;;5037343;28;20459;-81
2023/12/15 08:46:51;;;;;;;4.27;1.93;;;4.60;99.90;;;;;;5037627;28;20478;-80
2023/12/15 08:49:18;;;;;;;3.97;0.87;;;4.70;99.90;;;;;;5037349;28;20431;-82
2023/12/15 08:51:45;;;;;;;1.80;0.90;;;4.70;99.90;;;;;;5037822;28;20446;-81
2023/12/15 08:54:12;;;;;;;3.43;1.50;;;4.70;99.90;;;;;;5037612;28;20446;-82
2023/12/15 08:56:39;;;;;;;0.93;0.50;;;4.60;99.90;;;;;;5036325;28;20814;-81
2023/12/15 08:59:07;;;;;;;1.50;1.30;;;4.60;99.90;;;;;;5036733;28;20489;-82
2023/12/15 09:01:33;;;;;;;3.73;1.37;;;4.50;99.90;;;;;;5037353;28;20462;-81
2023/12/15 09:04:00;;;;;;;4.70;1.30;;;4.70;99.90;;;;;;5037571;28;20486;-81
2023/12/15 09:06:27;;;;;;;5.73;1.07;;;4.80;99.90;;;;;;5036686;28;20500;-81
2023/12/15 09:08:54;;;;;;;9.93;2.87;;;4.90;99.90;;;;;;5037024;28;20427;-82
2023/12/15 09:11:20;;;;;;;2.90;1.50;;;5.10;99.90;;;;;;5037701;28;20447;-81
2023/12/15 09:13:47;;;;;;;2.00;1.10;;;5.10;99.90;;;;;;5037666;28;20439;-82
2023/12/15 09:16:15;;;;;;;3.07;1.43;;;5.10;99.90;;;;;;5036329;28;20446;-81
2023/12/15 09:18:42;;;;;;;1.70;1.10;;;5.00;99.90;;;;;;5037045;28;20501;-82
2023/12/15 09:21:08;;;;;;;2.40;1.77;;;5.20;99.90;;;;;;5037115;28;20447;-83
2023/12/15 09:23:35;;;;;;;2.50;1.47;;;5.20;99.90;;;;;;5037198;28;20454;-82
2023/12/15 09:26:02;;;;;;;1.93;1.83;;;5.20;99.90;;;;;;5037162;28;20954;-82
2023/12/15 09:28:28;;;;;;;5.17;1.70;;;5.20;99.90;;;;;;5036913;28;20446;-82
2023/12/15 09:30:55;;;;;;;0.83;0.67;;;5.20;99.90;;;;;;5036906;28;20427;-82
2023/12/15 09:33:23;;;;;;;3.47;1.53;;;5.20;99.90;;;;;;5036910;28;20443;-83
2023/12/15 09:35:53;;;;;;;7.77;2.73;;;5.40;99.90;;;;;;5036380;28;20439;-83
2023/12/15 09:38:20;;;;;;;2.87;2.13;;;5.40;99.90;;;;;;5036578;28;20488;-82
2023/12/15 09:40:47;;;;;;;3.83;1.87;;;5.50;99.90;;;;;;5035734;28;21009;-82
2023/12/15 09:43:14;;;;;;;1.87;1.20;;;5.50;99.90;;;;;;5036987;28;20865;-80
2023/12/15 09:45:41;;;;;;;3.93;1.80;;;5.60;99.90;;;;;;5035721;28;20939;-83
2023/12/15 09:48:08;;;;;;;4.80;1.93;;;5.70;99.90;;;;;;5036185;28;20474;-83
2023/12/15 09:50:40;;;;;;;1.77;1.67;;;5.60;99.90;;;;;;5035557;28;20443;-82
2023/12/15 09:53:07;;;;;;;4.27;1.30;;;5.60;99.90;;;;;;5036194;28;20523;-82
2023/12/15 09:55:34;;;;;;;2.00;1.47;;;5.70;99.90;;;;;;5035720;28;20810;-83
2023/12/15 09:58:01;;;;;;;7.40;1.90;;;5.70;99.90;;;;;;5035368;28;20491;-82
2023/12/15 10:00:29;;;;;;;2.87;1.60;;;5.80;99.90;;;;;;5035255;28;20959;-82
2023/12/15 10:02:56;;;;;;;5.77;1.90;;;5.90;99.90;;;;;;5035105;28;20439;-82
2023/12/15 10:05:25;;;;;;;1.07;0.97;;;5.90;99.90;;;;;;5034953;28;20450;-83
2023/12/15 10:07:54;;;;;;;3.30;2.27;;;6.00;99.90;;;;;;5034777;28;21058;-82
2023/12/15 10:10:23;;;;;;;1.97;1.50;;;6.00;99.90;;;;;;5034883;28;20438;-83
2023/12/15 10:12:50;;;;;;;1.73;1.43;;;6.20;99.90;;;;;;5035342;28;20450;-82
2023/12/15 10:15:17;;;;;;;4.97;1.83;;;6.30;99.90;;;;;;5034891;28;20435;-83
2023/12/15 10:17:44;;;;;;;2.43;2.00;;;6.40;99.90;;;;;;5034247;28;20871;-83
2023/12/15 10:20:12;;;;;;;2.93;0.90;;;6.50;99.90;;;;;;5034685;28;20451;-83
2023/12/15 10:22:39;;;;;;;2.00;1.33;;;6.60;99.90;;;;;;5034428;28;20458;-83
2023/12/15 10:25:20;;;;;;;2.87;1.67;;;6.50;99.90;;;;;;5034077;28;20447;-83
2023/12/15 10:27:48;;;;;;;3.03;1.83;;;6.60;99.90;;;;;;5033980;28;20470;-82
2023/12/15 10:30:15;;;;;;;2.93;1.47;;;6.60;99.90;;;;;;5034326;28;20472;-82
2023/12/15 10:32:43;;;;;;;10.37;1.43;;;6.70;99.90;;;;;;5036481;28;20956;-83
2023/12/15 10:35:10;;;;;;;3.47;1.43;;;6.70;99.90;;;;;;5046628;28;20447;-82
2023/12/15 10:37:37;;;;;;;2.77;1.60;;;6.80;99.90;;;;;;5035603;28;20477;-82
2023/12/15 10:40:05;;;;;;;2.33;1.37;;;6.90;99.90;;;;;;5034621;28;20522;-82
2023/12/15 10:42:35;;;;;;;3.50;1.53;;;7.00;99.90;;;;;;5034299;28;20450;-82
2023/12/15 10:45:04;;;;;;;3.37;1.87;;;7.10;99.90;;;;;;5034173;28;20457;-82
2023/12/15 10:47:32;;;;;;;2.90;1.30;;;7.00;99.90;;;;;;5033197;28;20980;-82
2023/12/15 10:50:00;;;;;;;1.70;1.50;;;7.00;99.90;;;;;;5033776;28;20446;-82
2023/12/15 10:52:27;;;;;;;2.37;1.67;;;7.00;99.90;;;;;;5033201;28;20943;-83
2023/12/15 10:54:55;;;;;;;4.27;1.73;;;6.90;99.90;;;;;;5033877;28;20447;-82
2023/12/15 10:57:22;;;;;;;3.57;1.70;;;6.90;99.90;;;;;;5033049;28;20466;-84
2023/12/15 10:59:51;;;;;;;2.50;1.77;;;7.00;99.90;;;;;;5033298;28;20443;-83
2023/12/15 11:02:20;;;;;;;2.10;1.20;;;7.00;99.90;;;;;;5033300;28;20443;-82
2023/12/15 11:04:48;;;;;;;1.33;1.10;;;7.00;99.90;;;;;;5033461;28;20447;-82
2023/12/15 11:07:19;;;;;;;2.17;0.83;;;7.10;99.90;;;;;;5032828;28;20490;-83
2023/12/15 11:09:46;;;;;;;3.53;1.30;;;7.10;99.90;;;;;;5033460;28;20786;-82
2023/12/15 11:12:23;;;;;;;2.00;1.23;;;7.00;99.90;;;;;;5033292;28;20446;-82
2023/12/15 11:14:58;;;;;;;1.90;1.23;;;7.00;99.90;;;;;;5033881;28;20447;-82
2023/12/15 11:17:25;;;;;;;2.57;1.47;;;7.10;99.90;;;;;;5033183;28;20469;-82
2023/12/15 11:19:57;;;;;;;6.10;1.10;;;7.10;99.90;;;;;;5033227;28;20592;-83
2023/12/15 11:22:23;;;;;;;1.53;1.10;;;7.30;99.90;;;;;;5033294;28;20797;-83
2023/12/15 11:24:50;;;;;;;4.40;1.23;;;7.30;99.90;;;;;;5032890;28;20434;-82
2023/12/15 11:27:17;;;;;;;3.67;1.07;;;7.30;99.90;;;;;;5032967;28;20466;-82
2023/12/15 11:29:43;;;;;;;2.10;1.30;;;7.40;99.90;;;;;;5033095;28;20935;-82
2023/12/15 11:32:34;;;;;;;1.40;1.30;;;7.50;99.90;;;;;;5032813;28;20999;-83
2023/12/15 11:35:00;;;;;;;1.27;0.93;;;7.50;99.90;;;;;;5032921;28;20439;-82
2023/12/15 11:37:30;;;;;;;2.27;2.07;;;7.70;99.90;;;;;;5033171;28;20462;-82
2023/12/15 11:39:58;;;;;;;4.67;2.27;;;7.80;99.90;;;;;;5036615;28;20478;-82
2023/12/15 11:42:25;;;;;;;2.90;1.20;;;7.70;99.90;;;;;;5036925;28;20904;-82
2023/12/15 11:44:52;;;;;;;2.00;1.20;;;7.80;99.90;;;;;;5037227;28;20451;-83
2023/12/15 11:47:19;;;;;;;3.20;1.00;;;7.90;99.90;;;;;;5038881;28;20458;-82
2023/12/15 11:49:47;;;;;;;1.00;0.93;;;8.00;99.90;;;;;;5036851;28;20442;-82
2023/12/15 11:52:15;;;;;;;1.40;0.80;;;7.90;99.90;;;;;;5036797;28;20450;-83
2023/12/15 11:54:42;;;;;;;1.07;1.03;;;7.80;99.90;;;;;;5037469;28;20501;-83
2023/12/15 11:57:09;;;;;;;1.70;1.10;;;7.80;99.90;;;;;;5036844;28;20466;-82
2023/12/15 11:59:37;;;;;;;2.13;0.67;;;7.80;99.90;;;;;;5036834;28;20494;-83
2023/12/15 12:02:06;;;;;;;3.00;1.40;;;7.90;99.90;;;;;;5036698;28;20450;-83
2023/12/15 12:04:32;;;;;;;2.07;0.90;;;7.90;99.90;;;;;;5037049;28;20997;-82
2023/12/15 12:07:02;;;;;;;1.00;0.90;;;7.80;99.90;;;;;;5036866;28;20850;-83
2023/12/15 12:09:29;;;;;;;2.00;1.10;;;7.80;99.90;;;;;;5037240;28;20446;-83
2023/12/15 12:11:57;;;;;;;3.63;2.07;;;7.70;99.90;;;;;;5038093;28;20450;-82
2023/12/15 12:14:27;;;;;;;1.53;0.97;;;7.70;99.90;;;;;;5037748;28;20857;-80
2023/12/15 12:16:54;;;;;;;1.63;1.07;;;7.80;99.90;;;;;;5037850;28;20558;-83
2023/12/15 12:19:22;;;;;;;1.17;1.03;;;7.90;99.90;;;;;;5036638;28;20482;-83
2023/12/15 12:21:53;;;;;;;2.73;1.77;;;7.90;99.90;;;;;;5036402;28;20446;-81
2023/12/15 12:24:22;;;;;;;0.73;0.73;;;8.00;99.90;;;;;;5036319;28;20800;-81
2023/12/15 12:26:51;;;;;;;1.17;0.73;;;7.80;99.90;;;;;;5036300;28;20827;-81
2023/12/15 12:29:18;;;;;;;4.53;1.03;;;7.90;99.90;;;;;;5036599;28;20439;-81
2023/12/15 12:31:45;;;;;;;3.63;1.10;;;7.90;99.90;;;;;;5035966;28;20924;-80
2023/12/15 12:34:11;;;;;;;0.57;0.57;;;7.80;99.90;;;;;;5035809;28;20454;-81
2023/12/15 12:36:38;;;;;;;1.43;0.83;;;7.80;99.90;;;;;;5036036;28;20458;-80
2023/12/15 12:39:06;;;;;;;1.70;1.03;;;7.80;99.90;;;;;;5035869;28;20979;-81
2023/12/15 12:41:34;;;;;;;4.77;0.60;;;8.00;99.90;;;;;;5035959;28;20482;-81
2023/12/15 12:44:01;;;;;;;2.03;1.40;;;8.00;99.90;;;;;;5037192;28;20481;-81
2023/12/15 12:46:28;;;;;;;0.80;0.63;;;8.00;99.90;;;;;;5057931;28;20473;-82
2023/12/15 12:48:55;;;;;;;0.60;0.40;;;8.00;99.90;;;;;;5035710;28;20935;-80
2023/12/15 12:51:23;;;;;;;1.27;1.17;;;8.00;99.90;;;;;;5035169;28;20530;-81
2023/12/15 12:53:50;;;;;;;1.40;1.30;;;8.00;99.90;;;;;;5035429;28;20540;-81
2023/12/15 12:56:17;;;;;;;1.03;0.93;;;8.00;99.90;;;;;;5035345;28;20470;-81
2023/12/15 12:58:45;;;;;;;0.90;0.80;;;7.90;99.90;;;;;;5035252;28;20569;-80